sensor_id;sensor_type;location;lat;lon;timestamp;P1;durP1;ratioP1;P2;durP2;ratioP2
15114;SDS011;7658;51.456;7.622;2023-06-10T00:00:34;10.10;;;8.60;;
15114;SDS011;7658;51.456;7.622;2023-06-10T00:03:00;10.98;;;7.95;;
15114;SDS011;7658;51.456;7.622;2023-06-10T00:05:26;8.70;;;7.80;;
15114;SDS011;7658;51.456;7.622;2023-06-10T00:07:55;10.18;;;8.50;;
15114;SDS011;7658;51.456;7.622;2023-06-10T00:10:21;9.48;;;8.48;;
15114;SDS011;7658;51.456;7.622;2023-06-10T00:12:48;10.05;;;8.45;;
15114;SDS011;7658;51.456;7.622;2023-06-10T00:15:14;10.40;;;8.38;;
15114;SDS011;7658;51.456;7.622;2023-06-10T00:17:39;10.98;;;8.70;;
15114;SDS011;7658;51.456;7.622;2023-06-10T00:20:09;10.23;;;8.85;;
15114;SDS011;7658;51.456;7.622;2023-06-10T00:22:37;9.75;;;8.70;;
15114;SDS011;7658;51.456;7.622;2023-06-10T00:25:07;10.57;;;8.98;;
15114;SDS011;7658;51.456;7.622;2023-06-10T00:27:35;10.38;;;8.90;;
15114;SDS011;7658;51.456;7.622;2023-06-10T00:30:02;10.88;;;8.95;;
15114;SDS011;7658;51.456;7.622;2023-06-10T00:32:29;11.30;;;9.15;;
15114;SDS011;7658;51.456;7.622;2023-06-10T00:34:56;10.25;;;9.07;;
15114;SDS011;7658;51.456;7.622;2023-06-10T00:37:21;11.20;;;8.65;;
15114;SDS011;7658;51.456;7.622;2023-06-10T00:39:47;12.35;;;8.95;;
15114;SDS011;7658;51.456;7.622;2023-06-10T00:42:13;9.73;;;8.38;;
15114;SDS011;7658;51.456;7.622;2023-06-10T00:44:39;10.73;;;8.63;;
15114;SDS011;7658;51.456;7.622;2023-06-10T00:47:05;10.52;;;9.35;;
15114;SDS011;7658;51.456;7.622;2023-06-10T00:49:31;11.98;;;9.07;;
15114;SDS011;7658;51.456;7.622;2023-06-10T00:51:58;11.27;;;9.00;;
15114;SDS011;7658;51.456;7.622;2023-06-10T00:54:23;9.98;;;8.90;;
15114;SDS011;7658;51.456;7.622;2023-06-10T00:56:51;11.40;;;9.20;;
15114;SDS011;7658;51.456;7.622;2023-06-10T00:59:17;11.10;;;9.05;;
15114;SDS011;7658;51.456;7.622;2023-06-10T01:01:43;10.05;;;9.05;;
15114;SDS011;7658;51.456;7.622;2023-06-10T01:04:12;11.25;;;9.32;;
15114;SDS011;7658;51.456;7.622;2023-06-10T01:12:10;11.23;;;9.15;;
15114;SDS011;7658;51.456;7.622;2023-06-10T01:14:41;12.70;;;9.55;;
15114;SDS011;7658;51.456;7.622;2023-06-10T01:17:10;12.90;;;10.10;;
15114;SDS011;7658;51.456;7.622;2023-06-10T01:19:36;12.93;;;9.60;;
15114;SDS011;7658;51.456;7.622;2023-06-10T01:22:03;10.40;;;8.88;;
15114;SDS011;7658;51.456;7.622;2023-06-10T01:24:29;11.77;;;9.73;;
15114;SDS011;7658;51.456;7.622;2023-06-10T01:27:00;11.40;;;9.60;;
15114;SDS011;7658;51.456;7.622;2023-06-10T01:29:33;12.95;;;10.52;;
15114;SDS011;7658;51.456;7.622;2023-06-10T01:32:15;11.95;;;10.30;;
15114;SDS011;7658;51.456;7.622;2023-06-10T01:34:46;11.75;;;10.52;;
15114;SDS011;7658;51.456;7.622;2023-06-10T01:37:16;14.77;;;10.57;;
15114;SDS011;7658;51.456;7.622;2023-06-10T01:39:44;12.70;;;10.82;;
15114;SDS011;7658;51.456;7.622;2023-06-10T01:42:12;11.93;;;9.75;;
15114;SDS011;7658;51.456;7.622;2023-06-10T01:44:38;14.48;;;10.07;;
15114;SDS011;7658;51.456;7.622;2023-06-10T01:47:04;13.57;;;10.63;;
15114;SDS011;7658;51.456;7.622;2023-06-10T01:49:30;11.70;;;10.45;;
15114;SDS011;7658;51.456;7.622;2023-06-10T01:51:56;14.77;;;10.63;;
15114;SDS011;7658;51.456;7.622;2023-06-10T01:54:21;12.60;;;10.63;;
15114;SDS011;7658;51.456;7.622;2023-06-10T01:56:47;15.27;;;10.57;;
15114;SDS011;7658;51.456;7.622;2023-06-10T01:59:13;12.63;;;10.18;;
15114;SDS011;7658;51.456;7.622;2023-06-10T02:01:38;12.63;;;9.90;;
15114;SDS011;7658;51.456;7.622;2023-06-10T02:04:04;11.45;;;10.25;;
15114;SDS011;7658;51.456;7.622;2023-06-10T02:06:30;13.40;;;10.48;;
15114;SDS011;7658;51.456;7.622;2023-06-10T02:08:56;12.75;;;10.23;;
15114;SDS011;7658;51.456;7.622;2023-06-10T02:11:22;10.52;;;9.43;;
15114;SDS011;7658;51.456;7.622;2023-06-10T02:13:48;11.10;;;9.90;;
15114;SDS011;7658;51.456;7.622;2023-06-10T02:16:13;12.38;;;10.57;;
15114;SDS011;7658;51.456;7.622;2023-06-10T02:18:41;11.30;;;10.13;;
15114;SDS011;7658;51.456;7.622;2023-06-10T02:21:11;11.52;;;10.23;;
15114;SDS011;7658;51.456;7.622;2023-06-10T02:23:37;12.77;;;10.45;;
15114;SDS011;7658;51.456;7.622;2023-06-10T02:26:02;14.50;;;11.52;;
15114;SDS011;7658;51.456;7.622;2023-06-10T02:28:28;12.10;;;10.85;;
15114;SDS011;7658;51.456;7.622;2023-06-10T02:30:54;12.60;;;10.70;;
15114;SDS011;7658;51.456;7.622;2023-06-10T02:33:22;14.35;;;11.43;;
15114;SDS011;7658;51.456;7.622;2023-06-10T02:35:48;13.48;;;10.48;;
15114;SDS011;7658;51.456;7.622;2023-06-10T02:38:14;13.45;;;11.40;;
15114;SDS011;7658;51.456;7.622;2023-06-10T02:40:39;14.48;;;12.32;;
15114;SDS011;7658;51.456;7.622;2023-06-10T02:43:05;13.75;;;11.13;;
15114;SDS011;7658;51.456;7.622;2023-06-10T02:45:31;13.13;;;11.48;;
15114;SDS011;7658;51.456;7.622;2023-06-10T02:47:56;15.02;;;12.13;;
15114;SDS011;7658;51.456;7.622;2023-06-10T02:50:22;14.98;;;11.25;;
15114;SDS011;7658;51.456;7.622;2023-06-10T02:52:48;16.90;;;11.15;;
15114;SDS011;7658;51.456;7.622;2023-06-10T02:55:15;14.65;;;11.57;;
15114;SDS011;7658;51.456;7.622;2023-06-10T02:57:40;13.77;;;12.05;;
15114;SDS011;7658;51.456;7.622;2023-06-10T03:00:06;13.30;;;11.20;;
15114;SDS011;7658;51.456;7.622;2023-06-10T03:02:36;12.10;;;10.40;;
15114;SDS011;7658;51.456;7.622;2023-06-10T03:05:04;13.40;;;11.85;;
15114;SDS011;7658;51.456;7.622;2023-06-10T03:07:30;12.32;;;11.02;;
15114;SDS011;7658;51.456;7.622;2023-06-10T03:09:57;12.90;;;11.38;;
15114;SDS011;7658;51.456;7.622;2023-06-10T03:12:22;12.00;;;10.80;;
15114;SDS011;7658;51.456;7.622;2023-06-10T03:14:48;12.77;;;10.18;;
15114;SDS011;7658;51.456;7.622;2023-06-10T03:17:14;13.70;;;11.68;;
15114;SDS011;7658;51.456;7.622;2023-06-10T03:19:40;12.43;;;10.60;;
15114;SDS011;7658;51.456;7.622;2023-06-10T03:22:12;14.35;;;11.35;;
15114;SDS011;7658;51.456;7.622;2023-06-10T03:24:40;15.32;;;11.10;;
15114;SDS011;7658;51.456;7.622;2023-06-10T03:27:09;13.07;;;11.48;;
15114;SDS011;7658;51.456;7.622;2023-06-10T03:29:36;12.25;;;11.05;;
15114;SDS011;7658;51.456;7.622;2023-06-10T03:32:02;13.02;;;11.45;;
15114;SDS011;7658;51.456;7.622;2023-06-10T03:34:28;15.52;;;11.30;;
15114;SDS011;7658;51.456;7.622;2023-06-10T03:36:55;14.68;;;12.27;;
15114;SDS011;7658;51.456;7.622;2023-06-10T03:39:21;13.48;;;11.40;;
15114;SDS011;7658;51.456;7.622;2023-06-10T03:41:48;12.98;;;11.00;;
15114;SDS011;7658;51.456;7.622;2023-06-10T03:44:16;12.65;;;11.35;;
15114;SDS011;7658;51.456;7.622;2023-06-10T03:46:42;14.75;;;11.55;;
15114;SDS011;7658;51.456;7.622;2023-06-10T03:49:07;16.13;;;11.90;;
15114;SDS011;7658;51.456;7.622;2023-06-10T03:51:35;13.23;;;11.77;;
15114;SDS011;7658;51.456;7.622;2023-06-10T03:54:01;13.88;;;11.32;;
15114;SDS011;7658;51.456;7.622;2023-06-10T03:56:27;13.60;;;11.60;;
15114;SDS011;7658;51.456;7.622;2023-06-10T03:58:53;13.77;;;11.57;;
15114;SDS011;7658;51.456;7.622;2023-06-10T04:01:20;15.95;;;12.07;;
15114;SDS011;7658;51.456;7.622;2023-06-10T04:03:46;15.60;;;11.48;;
15114;SDS011;7658;51.456;7.622;2023-06-10T04:06:14;13.55;;;11.40;;
15114;SDS011;7658;51.456;7.622;2023-06-10T04:08:41;12.60;;;11.30;;
15114;SDS011;7658;51.456;7.622;2023-06-10T04:11:07;13.68;;;11.57;;
15114;SDS011;7658;51.456;7.622;2023-06-10T04:13:33;13.30;;;11.15;;
15114;SDS011;7658;51.456;7.622;2023-06-10T04:15:59;15.32;;;11.43;;
15114;SDS011;7658;51.456;7.622;2023-06-10T04:18:25;14.65;;;12.73;;
15114;SDS011;7658;51.456;7.622;2023-06-10T04:20:51;15.05;;;12.00;;
15114;SDS011;7658;51.456;7.622;2023-06-10T04:23:17;13.70;;;11.82;;
15114;SDS011;7658;51.456;7.622;2023-06-10T04:25:43;14.27;;;11.13;;
15114;SDS011;7658;51.456;7.622;2023-06-10T04:28:09;14.02;;;12.43;;
15114;SDS011;7658;51.456;7.622;2023-06-10T04:30:35;14.27;;;12.32;;
15114;SDS011;7658;51.456;7.622;2023-06-10T04:33:00;13.90;;;12.50;;
15114;SDS011;7658;51.456;7.622;2023-06-10T04:35:26;14.40;;;12.20;;
15114;SDS011;7658;51.456;7.622;2023-06-10T04:37:52;14.05;;;12.43;;
15114;SDS011;7658;51.456;7.622;2023-06-10T04:40:19;12.75;;;11.45;;
15114;SDS011;7658;51.456;7.622;2023-06-10T04:42:45;13.93;;;12.02;;
15114;SDS011;7658;51.456;7.622;2023-06-10T04:45:11;15.38;;;11.95;;
15114;SDS011;7658;51.456;7.622;2023-06-10T04:47:36;15.55;;;13.02;;
15114;SDS011;7658;51.456;7.622;2023-06-10T04:50:02;14.30;;;12.80;;
15114;SDS011;7658;51.456;7.622;2023-06-10T04:52:30;14.40;;;12.68;;
15114;SDS011;7658;51.456;7.622;2023-06-10T04:54:57;18.33;;;13.90;;
15114;SDS011;7658;51.456;7.622;2023-06-10T04:57:23;15.50;;;13.75;;
15114;SDS011;7658;51.456;7.622;2023-06-10T04:59:49;16.83;;;13.43;;
15114;SDS011;7658;51.456;7.622;2023-06-10T05:02:14;14.93;;;13.25;;
15114;SDS011;7658;51.456;7.622;2023-06-10T05:04:40;16.08;;;13.43;;
15114;SDS011;7658;51.456;7.622;2023-06-10T05:07:06;15.38;;;13.75;;
15114;SDS011;7658;51.456;7.622;2023-06-10T05:09:32;14.77;;;13.05;;
15114;SDS011;7658;51.456;7.622;2023-06-10T05:11:58;17.90;;;12.80;;
15114;SDS011;7658;51.456;7.622;2023-06-10T05:14:23;14.95;;;12.50;;
15114;SDS011;7658;51.456;7.622;2023-06-10T05:16:49;14.35;;;11.45;;
15114;SDS011;7658;51.456;7.622;2023-06-10T05:19:15;12.75;;;10.93;;
15114;SDS011;7658;51.456;7.622;2023-06-10T05:21:41;15.25;;;12.02;;
15114;SDS011;7658;51.456;7.622;2023-06-10T05:24:07;15.00;;;11.88;;
15114;SDS011;7658;51.456;7.622;2023-06-10T05:26:33;17.17;;;11.70;;
15114;SDS011;7658;51.456;7.622;2023-06-10T05:29:02;16.55;;;11.43;;
15114;SDS011;7658;51.456;7.622;2023-06-10T05:31:28;15.75;;;10.85;;
15114;SDS011;7658;51.456;7.622;2023-06-10T05:33:54;13.68;;;10.73;;
15114;SDS011;7658;51.456;7.622;2023-06-10T05:36:20;13.98;;;11.55;;
15114;SDS011;7658;51.456;7.622;2023-06-10T05:38:46;13.70;;;10.73;;
15114;SDS011;7658;51.456;7.622;2023-06-10T05:41:12;18.13;;;11.07;;
15114;SDS011;7658;51.456;7.622;2023-06-10T05:43:38;14.70;;;11.63;;
15114;SDS011;7658;51.456;7.622;2023-06-10T05:46:03;14.50;;;10.95;;
15114;SDS011;7658;51.456;7.622;2023-06-10T05:48:29;15.82;;;11.60;;
15114;SDS011;7658;51.456;7.622;2023-06-10T05:50:55;16.27;;;10.35;;
15114;SDS011;7658;51.456;7.622;2023-06-10T05:53:21;16.27;;;10.65;;
15114;SDS011;7658;51.456;7.622;2023-06-10T05:55:47;16.35;;;11.15;;
15114;SDS011;7658;51.456;7.622;2023-06-10T05:58:14;10.60;;;9.13;;
15114;SDS011;7658;51.456;7.622;2023-06-10T06:00:39;10.35;;;8.45;;
15114;SDS011;7658;51.456;7.622;2023-06-10T06:03:06;13.20;;;9.45;;
15114;SDS011;7658;51.456;7.622;2023-06-10T06:05:36;10.88;;;8.95;;
15114;SDS011;7658;51.456;7.622;2023-06-10T06:08:06;12.73;;;9.07;;
15114;SDS011;7658;51.456;7.622;2023-06-10T06:10:33;11.88;;;9.57;;
15114;SDS011;7658;51.456;7.622;2023-06-10T06:12:59;10.77;;;8.95;;
15114;SDS011;7658;51.456;7.622;2023-06-10T06:15:26;12.00;;;9.25;;
15114;SDS011;7658;51.456;7.622;2023-06-10T06:17:52;11.23;;;8.18;;
15114;SDS011;7658;51.456;7.622;2023-06-10T06:20:18;9.88;;;8.27;;
15114;SDS011;7658;51.456;7.622;2023-06-10T06:22:45;9.93;;;7.80;;
15114;SDS011;7658;51.456;7.622;2023-06-10T06:25:11;10.90;;;8.20;;
15114;SDS011;7658;51.456;7.622;2023-06-10T06:27:36;9.43;;;8.07;;
15114;SDS011;7658;51.456;7.622;2023-06-10T06:30:02;12.60;;;7.78;;
15114;SDS011;7658;51.456;7.622;2023-06-10T06:32:28;11.38;;;8.32;;
15114;SDS011;7658;51.456;7.622;2023-06-10T06:34:54;10.38;;;7.72;;
15114;SDS011;7658;51.456;7.622;2023-06-10T06:37:21;10.13;;;8.27;;
15114;SDS011;7658;51.456;7.622;2023-06-10T06:39:49;13.80;;;8.70;;
15114;SDS011;7658;51.456;7.622;2023-06-10T06:42:16;10.95;;;7.55;;
15114;SDS011;7658;51.456;7.622;2023-06-10T06:44:42;12.57;;;8.00;;
15114;SDS011;7658;51.456;7.622;2023-06-10T06:47:08;10.15;;;8.20;;
15114;SDS011;7658;51.456;7.622;2023-06-10T06:49:33;8.93;;;7.72;;
15114;SDS011;7658;51.456;7.622;2023-06-10T06:51:59;9.52;;;8.00;;
15114;SDS011;7658;51.456;7.622;2023-06-10T06:54:25;10.52;;;7.78;;
15114;SDS011;7658;51.456;7.622;2023-06-10T06:56:50;8.43;;;7.53;;
15114;SDS011;7658;51.456;7.622;2023-06-10T06:59:16;11.45;;;8.00;;
15114;SDS011;7658;51.456;7.622;2023-06-10T07:01:44;11.07;;;7.57;;
15114;SDS011;7658;51.456;7.622;2023-06-10T07:04:10;11.88;;;7.88;;
15114;SDS011;7658;51.456;7.622;2023-06-10T07:06:36;9.02;;;7.35;;
15114;SDS011;7658;51.456;7.622;2023-06-10T07:09:03;13.18;;;7.35;;
15114;SDS011;7658;51.456;7.622;2023-06-10T07:11:29;11.27;;;6.97;;
15114;SDS011;7658;51.456;7.622;2023-06-10T07:13:55;16.17;;;7.50;;
15114;SDS011;7658;51.456;7.622;2023-06-10T07:16:21;8.25;;;6.85;;
15114;SDS011;7658;51.456;7.622;2023-06-10T07:18:47;8.50;;;6.53;;
15114;SDS011;7658;51.456;7.622;2023-06-10T07:21:13;8.98;;;6.93;;
15114;SDS011;7658;51.456;7.622;2023-06-10T07:23:42;11.05;;;6.70;;
15114;SDS011;7658;51.456;7.622;2023-06-10T07:26:08;10.32;;;6.88;;
15114;SDS011;7658;51.456;7.622;2023-06-10T07:28:36;10.52;;;7.35;;
15114;SDS011;7658;51.456;7.622;2023-06-10T07:31:02;9.90;;;6.88;;
15114;SDS011;7658;51.456;7.622;2023-06-10T07:33:28;9.48;;;6.45;;
15114;SDS011;7658;51.456;7.622;2023-06-10T07:35:54;9.48;;;6.90;;
15114;SDS011;7658;51.456;7.622;2023-06-10T07:38:20;10.52;;;7.07;;
15114;SDS011;7658;51.456;7.622;2023-06-10T07:40:46;11.10;;;6.75;;
15114;SDS011;7658;51.456;7.622;2023-06-10T07:43:12;8.25;;;6.07;;
15114;SDS011;7658;51.456;7.622;2023-06-10T07:45:40;7.40;;;5.85;;
15114;SDS011;7658;51.456;7.622;2023-06-10T07:48:06;9.48;;;6.38;;
15114;SDS011;7658;51.456;7.622;2023-06-10T07:50:33;8.20;;;6.60;;
15114;SDS011;7658;51.456;7.622;2023-06-10T07:52:58;10.80;;;7.00;;
15114;SDS011;7658;51.456;7.622;2023-06-10T07:55:24;8.95;;;6.30;;
15114;SDS011;7658;51.456;7.622;2023-06-10T07:57:53;13.00;;;6.25;;
15114;SDS011;7658;51.456;7.622;2023-06-10T08:00:19;11.35;;;6.30;;
15114;SDS011;7658;51.456;7.622;2023-06-10T08:02:46;9.32;;;6.97;;
15114;SDS011;7658;51.456;7.622;2023-06-10T08:05:12;11.68;;;6.53;;
15114;SDS011;7658;51.456;7.622;2023-06-10T08:07:41;7.85;;;6.05;;
15114;SDS011;7658;51.456;7.622;2023-06-10T08:10:07;10.70;;;6.10;;
15114;SDS011;7658;51.456;7.622;2023-06-10T08:12:33;7.47;;;5.82;;
15114;SDS011;7658;51.456;7.622;2023-06-10T08:15:00;7.25;;;5.72;;
15114;SDS011;7658;51.456;7.622;2023-06-10T08:17:26;11.10;;;6.50;;
15114;SDS011;7658;51.456;7.622;2023-06-10T08:19:52;10.98;;;6.38;;
15114;SDS011;7658;51.456;7.622;2023-06-10T08:22:18;9.07;;;5.50;;
15114;SDS011;7658;51.456;7.622;2023-06-10T08:24:43;7.30;;;5.43;;
15114;SDS011;7658;51.456;7.622;2023-06-10T08:27:09;12.75;;;5.85;;
15114;SDS011;7658;51.456;7.622;2023-06-10T08:29:35;8.20;;;5.90;;
15114;SDS011;7658;51.456;7.622;2023-06-10T08:32:01;9.38;;;5.90;;
15114;SDS011;7658;51.456;7.622;2023-06-10T08:34:27;10.95;;;6.00;;
15114;SDS011;7658;51.456;7.622;2023-06-10T08:36:53;8.27;;;5.63;;
15114;SDS011;7658;51.456;7.622;2023-06-10T08:39:20;12.05;;;6.35;;
15114;SDS011;7658;51.456;7.622;2023-06-10T08:44:32;9.10;;;5.93;;
15114;SDS011;7658;51.456;7.622;2023-06-10T08:47:03;10.55;;;6.03;;
15114;SDS011;7658;51.456;7.622;2023-06-10T08:49:36;9.95;;;6.30;;
15114;SDS011;7658;51.456;7.622;2023-06-10T08:52:06;11.32;;;6.78;;
15114;SDS011;7658;51.456;7.622;2023-06-10T08:54:33;6.43;;;5.40;;
15114;SDS011;7658;51.456;7.622;2023-06-10T08:57:03;9.25;;;6.38;;
15114;SDS011;7658;51.456;7.622;2023-06-10T08:59:31;10.30;;;6.53;;
15114;SDS011;7658;51.456;7.622;2023-06-10T09:01:57;9.50;;;5.95;;
15114;SDS011;7658;51.456;7.622;2023-06-10T09:04:24;11.07;;;6.15;;
15114;SDS011;7658;51.456;7.622;2023-06-10T09:06:51;9.30;;;6.15;;
15114;SDS011;7658;51.456;7.622;2023-06-10T09:09:18;9.85;;;5.45;;
15114;SDS011;7658;51.456;7.622;2023-06-10T09:11:45;8.38;;;5.60;;
15114;SDS011;7658;51.456;7.622;2023-06-10T09:14:11;10.23;;;6.10;;
15114;SDS011;7658;51.456;7.622;2023-06-10T09:16:41;10.27;;;6.22;;
15114;SDS011;7658;51.456;7.622;2023-06-10T09:19:07;11.82;;;6.20;;
15114;SDS011;7658;51.456;7.622;2023-06-10T09:21:36;10.40;;;5.55;;
15114;SDS011;7658;51.456;7.622;2023-06-10T09:24:02;10.48;;;6.20;;
15114;SDS011;7658;51.456;7.622;2023-06-10T09:26:28;9.07;;;6.13;;
15114;SDS011;7658;51.456;7.622;2023-06-10T09:29:13;9.98;;;5.97;;
15114;SDS011;7658;51.456;7.622;2023-06-10T09:31:39;6.80;;;5.25;;
15114;SDS011;7658;51.456;7.622;2023-06-10T09:34:09;9.02;;;5.97;;
15114;SDS011;7658;51.456;7.622;2023-06-10T09:36:37;10.00;;;6.40;;
15114;SDS011;7658;51.456;7.622;2023-06-10T09:39:03;8.05;;;5.80;;
15114;SDS011;7658;51.456;7.622;2023-06-10T09:41:39;7.47;;;4.90;;
15114;SDS011;7658;51.456;7.622;2023-06-10T09:44:15;7.43;;;5.72;;
15114;SDS011;7658;51.456;7.622;2023-06-10T09:46:44;9.30;;;5.95;;
15114;SDS011;7658;51.456;7.622;2023-06-10T09:49:11;10.20;;;5.57;;
15114;SDS011;7658;51.456;7.622;2023-06-10T09:51:37;9.45;;;5.93;;
15114;SDS011;7658;51.456;7.622;2023-06-10T09:54:03;10.27;;;5.93;;
15114;SDS011;7658;51.456;7.622;2023-06-10T09:56:32;9.27;;;6.22;;
15114;SDS011;7658;51.456;7.622;2023-06-10T09:59:01;7.70;;;5.75;;
15114;SDS011;7658;51.456;7.622;2023-06-10T10:01:28;11.02;;;5.57;;
15114;SDS011;7658;51.456;7.622;2023-06-10T10:03:55;9.93;;;6.30;;
15114;SDS011;7658;51.456;7.622;2023-06-10T10:06:21;10.57;;;5.68;;
15114;SDS011;7658;51.456;7.622;2023-06-10T10:08:48;8.05;;;5.65;;
15114;SDS011;7658;51.456;7.622;2023-06-10T10:11:19;9.75;;;5.60;;
15114;SDS011;7658;51.456;7.622;2023-06-10T10:13:49;8.48;;;5.93;;
15114;SDS011;7658;51.456;7.622;2023-06-10T10:16:17;9.25;;;5.93;;
15114;SDS011;7658;51.456;7.622;2023-06-10T10:18:53;8.95;;;5.70;;
15114;SDS011;7658;51.456;7.622;2023-06-10T10:21:24;7.57;;;5.75;;
15114;SDS011;7658;51.456;7.622;2023-06-10T10:26:17;10.45;;;6.32;;
15114;SDS011;7658;51.456;7.622;2023-06-10T10:28:48;8.77;;;5.93;;
15114;SDS011;7658;51.456;7.622;2023-06-10T10:31:22;9.93;;;6.07;;
15114;SDS011;7658;51.456;7.622;2023-06-10T10:33:52;9.68;;;5.90;;
15114;SDS011;7658;51.456;7.622;2023-06-10T10:36:22;9.95;;;5.75;;
15114;SDS011;7658;51.456;7.622;2023-06-10T10:38:48;9.88;;;5.65;;
15114;SDS011;7658;51.456;7.622;2023-06-10T10:41:15;6.68;;;5.50;;
15114;SDS011;7658;51.456;7.622;2023-06-10T10:43:41;8.60;;;6.00;;
15114;SDS011;7658;51.456;7.622;2023-06-10T10:46:13;7.75;;;5.95;;
15114;SDS011;7658;51.456;7.622;2023-06-10T10:48:42;9.05;;;5.88;;
15114;SDS011;7658;51.456;7.622;2023-06-10T10:51:09;8.15;;;5.95;;
15114;SDS011;7658;51.456;7.622;2023-06-10T10:53:38;9.55;;;5.45;;
15114;SDS011;7658;51.456;7.622;2023-06-10T10:56:13;7.63;;;5.32;;
15114;SDS011;7658;51.456;7.622;2023-06-10T10:58:40;11.10;;;6.60;;
15114;SDS011;7658;51.456;7.622;2023-06-10T11:01:10;10.80;;;6.22;;
15114;SDS011;7658;51.456;7.622;2023-06-10T11:03:41;9.20;;;5.80;;
15114;SDS011;7658;51.456;7.622;2023-06-10T11:06:15;11.88;;;6.10;;
15114;SDS011;7658;51.456;7.622;2023-06-10T11:11:19;13.98;;;8.13;;
15114;SDS011;7658;51.456;7.622;2023-06-10T11:16:57;9.68;;;5.90;;
15114;SDS011;7658;51.456;7.622;2023-06-10T11:19:36;10.07;;;6.03;;
15114;SDS011;7658;51.456;7.622;2023-06-10T11:22:05;9.88;;;6.25;;
15114;SDS011;7658;51.456;7.622;2023-06-10T11:24:32;8.57;;;5.75;;
15114;SDS011;7658;51.456;7.622;2023-06-10T11:27:17;8.40;;;5.72;;
15114;SDS011;7658;51.456;7.622;2023-06-10T11:32:32;6.30;;;5.45;;
15114;SDS011;7658;51.456;7.622;2023-06-10T11:34:58;7.75;;;6.10;;
15114;SDS011;7658;51.456;7.622;2023-06-10T11:37:24;8.52;;;6.10;;
15114;SDS011;7658;51.456;7.622;2023-06-10T11:39:54;10.88;;;5.70;;
15114;SDS011;7658;51.456;7.622;2023-06-10T11:42:20;6.93;;;5.45;;
15114;SDS011;7658;51.456;7.622;2023-06-10T11:44:51;12.60;;;6.05;;
15114;SDS011;7658;51.456;7.622;2023-06-10T11:47:18;7.50;;;5.60;;
15114;SDS011;7658;51.456;7.622;2023-06-10T11:49:45;8.40;;;5.57;;
15114;SDS011;7658;51.456;7.622;2023-06-10T11:52:25;8.40;;;5.50;;
15114;SDS011;7658;51.456;7.622;2023-06-10T11:54:53;12.32;;;6.38;;
15114;SDS011;7658;51.456;7.622;2023-06-10T11:57:20;8.48;;;5.65;;
15114;SDS011;7658;51.456;7.622;2023-06-10T11:59:46;11.05;;;5.97;;
15114;SDS011;7658;51.456;7.622;2023-06-10T12:02:15;10.30;;;6.32;;
15114;SDS011;7658;51.456;7.622;2023-06-10T12:04:41;8.85;;;6.18;;
15114;SDS011;7658;51.456;7.622;2023-06-10T12:07:07;8.70;;;6.15;;
15114;SDS011;7658;51.456;7.622;2023-06-10T12:09:32;10.68;;;5.78;;
15114;SDS011;7658;51.456;7.622;2023-06-10T12:12:02;10.93;;;6.38;;
15114;SDS011;7658;51.456;7.622;2023-06-10T12:17:21;11.15;;;5.63;;
15114;SDS011;7658;51.456;7.622;2023-06-10T12:20:02;8.65;;;5.88;;
15114;SDS011;7658;51.456;7.622;2023-06-10T12:22:39;8.73;;;5.90;;
15114;SDS011;7658;51.456;7.622;2023-06-10T12:25:06;8.82;;;5.75;;
15114;SDS011;7658;51.456;7.622;2023-06-10T12:27:33;7.03;;;5.95;;
15114;SDS011;7658;51.456;7.622;2023-06-10T12:30:01;10.05;;;6.30;;
15114;SDS011;7658;51.456;7.622;2023-06-10T12:32:45;7.85;;;5.90;;
15114;SDS011;7658;51.456;7.622;2023-06-10T12:35:12;7.95;;;5.78;;
15114;SDS011;7658;51.456;7.622;2023-06-10T12:37:55;9.05;;;6.13;;
15114;SDS011;7658;51.456;7.622;2023-06-10T12:40:33;8.98;;;5.80;;
15114;SDS011;7658;51.456;7.622;2023-06-10T12:43:01;7.57;;;6.00;;
15114;SDS011;7658;51.456;7.622;2023-06-10T12:45:33;7.43;;;5.93;;
15114;SDS011;7658;51.456;7.622;2023-06-10T12:48:11;8.55;;;5.43;;
15114;SDS011;7658;51.456;7.622;2023-06-10T12:50:43;8.98;;;6.50;;
15114;SDS011;7658;51.456;7.622;2023-06-10T12:53:10;8.20;;;6.00;;
15114;SDS011;7658;51.456;7.622;2023-06-10T12:55:36;8.77;;;6.03;;
15114;SDS011;7658;51.456;7.622;2023-06-10T12:58:03;9.75;;;6.25;;
15114;SDS011;7658;51.456;7.622;2023-06-10T13:00:29;7.60;;;6.60;;
15114;SDS011;7658;51.456;7.622;2023-06-10T13:02:56;8.68;;;5.97;;
15114;SDS011;7658;51.456;7.622;2023-06-10T13:05:23;6.88;;;5.15;;
15114;SDS011;7658;51.456;7.622;2023-06-10T13:07:49;8.18;;;5.60;;
15114;SDS011;7658;51.456;7.622;2023-06-10T13:10:15;9.70;;;6.20;;
15114;SDS011;7658;51.456;7.622;2023-06-10T13:12:44;6.78;;;5.70;;
15114;SDS011;7658;51.456;7.622;2023-06-10T13:15:11;8.98;;;5.95;;
15114;SDS011;7658;51.456;7.622;2023-06-10T13:17:37;7.97;;;5.95;;
15114;SDS011;7658;51.456;7.622;2023-06-10T13:20:04;10.57;;;6.63;;
15114;SDS011;7658;51.456;7.622;2023-06-10T13:22:31;6.57;;;5.60;;
15114;SDS011;7658;51.456;7.622;2023-06-10T13:25:04;10.82;;;6.47;;
15114;SDS011;7658;51.456;7.622;2023-06-10T13:27:32;7.30;;;5.65;;
15114;SDS011;7658;51.456;7.622;2023-06-10T13:29:58;6.63;;;5.57;;
15114;SDS011;7658;51.456;7.622;2023-06-10T13:32:24;10.25;;;6.10;;
15114;SDS011;7658;51.456;7.622;2023-06-10T13:34:50;9.98;;;6.13;;
15114;SDS011;7658;51.456;7.622;2023-06-10T13:37:16;6.30;;;5.53;;
15114;SDS011;7658;51.456;7.622;2023-06-10T13:39:45;10.93;;;7.00;;
15114;SDS011;7658;51.456;7.622;2023-06-10T13:42:16;9.10;;;6.30;;
15114;SDS011;7658;51.456;7.622;2023-06-10T13:44:42;6.50;;;5.43;;
15114;SDS011;7658;51.456;7.622;2023-06-10T13:47:08;9.98;;;6.40;;
15114;SDS011;7658;51.456;7.622;2023-06-10T13:49:34;9.30;;;6.03;;
15114;SDS011;7658;51.456;7.622;2023-06-10T13:52:00;7.22;;;5.38;;
15114;SDS011;7658;51.456;7.622;2023-06-10T13:54:26;10.55;;;6.25;;
15114;SDS011;7658;51.456;7.622;2023-06-10T13:56:52;9.57;;;6.70;;
15114;SDS011;7658;51.456;7.622;2023-06-10T13:59:18;8.13;;;5.45;;
15114;SDS011;7658;51.456;7.622;2023-06-10T14:01:45;9.15;;;6.15;;
15114;SDS011;7658;51.456;7.622;2023-06-10T14:04:11;6.97;;;5.60;;
15114;SDS011;7658;51.456;7.622;2023-06-10T14:06:36;7.15;;;5.47;;
15114;SDS011;7658;51.456;7.622;2023-06-10T14:09:02;8.13;;;5.75;;
15114;SDS011;7658;51.456;7.622;2023-06-10T14:11:28;8.27;;;5.68;;
15114;SDS011;7658;51.456;7.622;2023-06-10T14:13:54;8.13;;;5.95;;
15114;SDS011;7658;51.456;7.622;2023-06-10T14:16:23;8.98;;;6.53;;
15114;SDS011;7658;51.456;7.622;2023-06-10T14:18:50;9.23;;;5.90;;
15114;SDS011;7658;51.456;7.622;2023-06-10T14:21:18;9.07;;;6.35;;
15114;SDS011;7658;51.456;7.622;2023-06-10T14:23:44;7.63;;;6.28;;
15114;SDS011;7658;51.456;7.622;2023-06-10T14:26:10;7.38;;;5.40;;
15114;SDS011;7658;51.456;7.622;2023-06-10T14:28:37;8.90;;;6.65;;
15114;SDS011;7658;51.456;7.622;2023-06-10T14:31:02;10.30;;;5.93;;
15114;SDS011;7658;51.456;7.622;2023-06-10T14:33:28;8.05;;;5.65;;
15114;SDS011;7658;51.456;7.622;2023-06-10T14:35:56;7.93;;;5.38;;
15114;SDS011;7658;51.456;7.622;2023-06-10T14:38:21;6.70;;;5.18;;
15114;SDS011;7658;51.456;7.622;2023-06-10T14:40:47;7.07;;;5.75;;
15114;SDS011;7658;51.456;7.622;2023-06-10T14:43:13;9.55;;;5.82;;
15114;SDS011;7658;51.456;7.622;2023-06-10T14:45:39;8.35;;;5.50;;
15114;SDS011;7658;51.456;7.622;2023-06-10T14:48:05;8.30;;;5.32;;
15114;SDS011;7658;51.456;7.622;2023-06-10T14:50:33;8.13;;;5.90;;
15114;SDS011;7658;51.456;7.622;2023-06-10T14:53:00;6.30;;;5.30;;
15114;SDS011;7658;51.456;7.622;2023-06-10T14:55:26;6.75;;;5.38;;
15114;SDS011;7658;51.456;7.622;2023-06-10T14:57:51;7.63;;;5.10;;
15114;SDS011;7658;51.456;7.622;2023-06-10T15:00:17;7.30;;;5.65;;
15114;SDS011;7658;51.456;7.622;2023-06-10T15:02:48;7.60;;;5.75;;
15114;SDS011;7658;51.456;7.622;2023-06-10T15:05:15;8.70;;;6.43;;
15114;SDS011;7658;51.456;7.622;2023-06-10T15:07:42;10.40;;;5.88;;
15114;SDS011;7658;51.456;7.622;2023-06-10T15:10:08;6.20;;;5.30;;
15114;SDS011;7658;51.456;7.622;2023-06-10T15:12:35;8.15;;;5.70;;